sensor_id;sensor_type;location;lat;lon;timestamp;P1;durP1;ratioP1;P2;durP2;ratioP2
313;SDS011;143;51.634;7.112;2023-08-08T00:00:37;7.13;;;2.87;;
313;SDS011;143;51.634;7.112;2023-08-08T00:03:03;13.00;;;3.10;;
313;SDS011;143;51.634;7.112;2023-08-08T00:05:29;5.83;;;2.87;;
313;SDS011;143;51.634;7.112;2023-08-08T00:07:55;6.93;;;2.70;;
313;SDS011;143;51.634;7.112;2023-08-08T00:10:21;7.93;;;3.13;;
313;SDS011;143;51.634;7.112;2023-08-08T00:12:46;8.43;;;3.03;;
313;SDS011;143;51.634;7.112;2023-08-08T00:15:12;4.20;;;2.70;;
313;SDS011;143;51.634;7.112;2023-08-08T00:17:38;7.00;;;2.87;;
313;SDS011;143;51.634;7.112;2023-08-08T00:20:04;7.23;;;2.73;;
313;SDS011;143;51.634;7.112;2023-08-08T00:22:30;9.83;;;2.83;;
313;SDS011;143;51.634;7.112;2023-08-08T00:24:56;5.10;;;3.17;;
313;SDS011;143;51.634;7.112;2023-08-08T00:27:22;14.83;;;3.33;;
313;SDS011;143;51.634;7.112;2023-08-08T00:29:47;6.43;;;3.10;;
313;SDS011;143;51.634;7.112;2023-08-08T00:32:13;5.37;;;2.53;;
313;SDS011;143;51.634;7.112;2023-08-08T00:34:39;3.70;;;2.20;;
313;SDS011;143;51.634;7.112;2023-08-08T00:37:05;9.63;;;3.57;;
313;SDS011;143;51.634;7.112;2023-08-08T00:39:30;8.10;;;2.90;;
313;SDS011;143;51.634;7.112;2023-08-08T00:41:56;6.53;;;2.33;;
313;SDS011;143;51.634;7.112;2023-08-08T00:44:22;4.90;;;2.30;;
313;SDS011;143;51.634;7.112;2023-08-08T00:46:47;8.83;;;2.93;;
313;SDS011;143;51.634;7.112;2023-08-08T00:49:13;3.10;;;2.10;;
313;SDS011;143;51.634;7.112;2023-08-08T00:51:39;5.80;;;3.00;;
313;SDS011;143;51.634;7.112;2023-08-08T00:54:05;16.33;;;4.03;;
313;SDS011;143;51.634;7.112;2023-08-08T00:56:32;4.90;;;2.70;;
313;SDS011;143;51.634;7.112;2023-08-08T00:58:58;4.47;;;2.53;;
313;SDS011;143;51.634;7.112;2023-08-08T01:01:24;7.67;;;3.00;;
313;SDS011;143;51.634;7.112;2023-08-08T01:03:49;10.33;;;2.50;;
313;SDS011;143;51.634;7.112;2023-08-08T01:06:26;5.27;;;2.70;;
313;SDS011;143;51.634;7.112;2023-08-08T01:11:49;6.50;;;2.90;;
313;SDS011;143;51.634;7.112;2023-08-08T01:14:16;8.23;;;2.97;;
313;SDS011;143;51.634;7.112;2023-08-08T01:16:44;8.60;;;4.20;;
313;SDS011;143;51.634;7.112;2023-08-08T01:19:11;7.03;;;3.17;;
313;SDS011;143;51.634;7.112;2023-08-08T01:21:40;12.03;;;2.80;;
313;SDS011;143;51.634;7.112;2023-08-08T01:24:43;5.70;;;2.93;;
313;SDS011;143;51.634;7.112;2023-08-08T01:27:02;6.17;;;2.90;;
313;SDS011;143;51.634;7.112;2023-08-08T01:29:30;6.57;;;3.27;;
313;SDS011;143;51.634;7.112;2023-08-08T01:31:56;6.13;;;2.17;;
313;SDS011;143;51.634;7.112;2023-08-08T01:34:22;5.10;;;2.50;;
313;SDS011;143;51.634;7.112;2023-08-08T01:36:48;5.57;;;2.07;;
313;SDS011;143;51.634;7.112;2023-08-08T01:39:22;7.40;;;3.27;;
313;SDS011;143;51.634;7.112;2023-08-08T01:41:51;3.67;;;2.03;;
313;SDS011;143;51.634;7.112;2023-08-08T01:44:19;8.43;;;2.33;;
313;SDS011;143;51.634;7.112;2023-08-08T01:46:46;4.00;;;2.30;;
313;SDS011;143;51.634;7.112;2023-08-08T01:49:12;4.73;;;2.70;;
313;SDS011;143;51.634;7.112;2023-08-08T01:51:38;7.93;;;2.87;;
313;SDS011;143;51.634;7.112;2023-08-08T01:54:03;5.27;;;2.53;;
313;SDS011;143;51.634;7.112;2023-08-08T01:56:29;9.13;;;3.40;;
313;SDS011;143;51.634;7.112;2023-08-08T01:58:55;4.43;;;2.23;;
313;SDS011;143;51.634;7.112;2023-08-08T02:01:21;6.10;;;2.77;;
313;SDS011;143;51.634;7.112;2023-08-08T02:03:47;11.63;;;2.40;;
313;SDS011;143;51.634;7.112;2023-08-08T02:06:12;6.83;;;2.90;;
313;SDS011;143;51.634;7.112;2023-08-08T02:08:38;6.03;;;2.60;;
313;SDS011;143;51.634;7.112;2023-08-08T02:11:04;8.43;;;2.50;;
313;SDS011;143;51.634;7.112;2023-08-08T02:13:29;3.20;;;2.43;;
313;SDS011;143;51.634;7.112;2023-08-08T02:15:55;6.37;;;3.20;;
313;SDS011;143;51.634;7.112;2023-08-08T02:18:21;6.70;;;2.40;;
313;SDS011;143;51.634;7.112;2023-08-08T02:20:47;4.00;;;2.40;;
313;SDS011;143;51.634;7.112;2023-08-08T02:23:12;15.43;;;3.53;;
313;SDS011;143;51.634;7.112;2023-08-08T02:25:38;9.40;;;2.93;;
313;SDS011;143;51.634;7.112;2023-08-08T02:28:04;7.30;;;3.00;;
313;SDS011;143;51.634;7.112;2023-08-08T02:30:30;7.80;;;2.30;;
313;SDS011;143;51.634;7.112;2023-08-08T02:32:56;7.50;;;2.50;;
313;SDS011;143;51.634;7.112;2023-08-08T02:35:21;7.83;;;2.90;;
313;SDS011;143;51.634;7.112;2023-08-08T02:37:47;7.60;;;3.47;;
313;SDS011;143;51.634;7.112;2023-08-08T02:40:13;3.50;;;2.30;;
313;SDS011;143;51.634;7.112;2023-08-08T02:42:39;8.03;;;2.83;;
313;SDS011;143;51.634;7.112;2023-08-08T02:45:04;9.87;;;3.23;;
313;SDS011;143;51.634;7.112;2023-08-08T02:47:31;7.73;;;2.97;;
313;SDS011;143;51.634;7.112;2023-08-08T02:49:56;8.43;;;2.80;;
313;SDS011;143;51.634;7.112;2023-08-08T02:52:22;7.10;;;3.20;;
313;SDS011;143;51.634;7.112;2023-08-08T02:54:48;6.50;;;2.97;;
313;SDS011;143;51.634;7.112;2023-08-08T02:57:14;8.47;;;3.10;;
313;SDS011;143;51.634;7.112;2023-08-08T02:59:40;10.70;;;3.40;;
313;SDS011;143;51.634;7.112;2023-08-08T03:02:05;2.83;;;2.63;;
313;SDS011;143;51.634;7.112;2023-08-08T03:04:31;8.63;;;3.30;;
313;SDS011;143;51.634;7.112;2023-08-08T03:06:57;6.53;;;3.23;;
313;SDS011;143;51.634;7.112;2023-08-08T03:09:22;13.90;;;3.27;;
313;SDS011;143;51.634;7.112;2023-08-08T03:11:48;10.50;;;3.20;;
313;SDS011;143;51.634;7.112;2023-08-08T03:14:14;7.10;;;3.30;;
313;SDS011;143;51.634;7.112;2023-08-08T03:16:39;17.27;;;3.30;;
313;SDS011;143;51.634;7.112;2023-08-08T03:19:05;8.87;;;4.00;;
313;SDS011;143;51.634;7.112;2023-08-08T03:21:31;13.50;;;4.10;;
313;SDS011;143;51.634;7.112;2023-08-08T03:23:57;8.57;;;3.87;;
313;SDS011;143;51.634;7.112;2023-08-08T03:26:23;9.23;;;3.23;;
313;SDS011;143;51.634;7.112;2023-08-08T03:28:49;10.30;;;3.70;;
313;SDS011;143;51.634;7.112;2023-08-08T03:31:16;10.53;;;3.60;;
313;SDS011;143;51.634;7.112;2023-08-08T03:33:42;11.03;;;4.37;;
313;SDS011;143;51.634;7.112;2023-08-08T03:36:08;7.93;;;4.00;;
313;SDS011;143;51.634;7.112;2023-08-08T03:38:34;8.50;;;4.60;;
313;SDS011;143;51.634;7.112;2023-08-08T03:41:00;8.80;;;4.57;;
313;SDS011;143;51.634;7.112;2023-08-08T03:43:26;26.87;;;4.57;;
313;SDS011;143;51.634;7.112;2023-08-08T03:45:52;10.50;;;4.43;;
313;SDS011;143;51.634;7.112;2023-08-08T03:48:17;10.13;;;4.77;;
313;SDS011;143;51.634;7.112;2023-08-08T03:50:43;9.63;;;4.33;;
313;SDS011;143;51.634;7.112;2023-08-08T03:53:09;13.50;;;4.17;;
313;SDS011;143;51.634;7.112;2023-08-08T03:55:34;15.77;;;4.37;;
313;SDS011;143;51.634;7.112;2023-08-08T03:58:00;19.03;;;5.67;;
313;SDS011;143;51.634;7.112;2023-08-08T04:00:26;9.20;;;4.30;;
313;SDS011;143;51.634;7.112;2023-08-08T04:02:51;14.50;;;4.90;;
313;SDS011;143;51.634;7.112;2023-08-08T04:05:17;8.60;;;3.60;;
313;SDS011;143;51.634;7.112;2023-08-08T04:07:43;11.50;;;5.03;;
313;SDS011;143;51.634;7.112;2023-08-08T04:10:09;8.13;;;4.27;;
313;SDS011;143;51.634;7.112;2023-08-08T04:12:34;10.17;;;4.97;;
313;SDS011;143;51.634;7.112;2023-08-08T04:15:00;10.80;;;5.33;;
313;SDS011;143;51.634;7.112;2023-08-08T04:17:26;7.07;;;4.40;;
313;SDS011;143;51.634;7.112;2023-08-08T04:19:52;18.43;;;5.90;;
313;SDS011;143;51.634;7.112;2023-08-08T04:22:17;19.60;;;6.93;;
313;SDS011;143;51.634;7.112;2023-08-08T04:24:43;17.83;;;6.93;;
313;SDS011;143;51.634;7.112;2023-08-08T04:27:09;14.03;;;6.00;;
313;SDS011;143;51.634;7.112;2023-08-08T04:29:35;13.03;;;6.97;;
313;SDS011;143;51.634;7.112;2023-08-08T04:32:01;18.77;;;6.97;;
313;SDS011;143;51.634;7.112;2023-08-08T04:34:27;15.10;;;6.80;;
313;SDS011;143;51.634;7.112;2023-08-08T04:36:52;15.60;;;7.60;;
313;SDS011;143;51.634;7.112;2023-08-08T04:39:18;16.33;;;7.90;;
313;SDS011;143;51.634;7.112;2023-08-08T04:41:44;19.20;;;7.60;;
313;SDS011;143;51.634;7.112;2023-08-08T04:44:09;10.60;;;5.80;;
313;SDS011;143;51.634;7.112;2023-08-08T04:46:35;20.97;;;7.10;;
313;SDS011;143;51.634;7.112;2023-08-08T04:49:01;14.93;;;6.30;;
313;SDS011;143;51.634;7.112;2023-08-08T04:51:26;14.20;;;7.13;;
313;SDS011;143;51.634;7.112;2023-08-08T04:53:52;11.00;;;7.33;;
313;SDS011;143;51.634;7.112;2023-08-08T04:56:18;13.87;;;7.10;;
313;SDS011;143;51.634;7.112;2023-08-08T04:58:43;15.13;;;8.20;;
313;SDS011;143;51.634;7.112;2023-08-08T05:01:09;18.50;;;7.30;;
313;SDS011;143;51.634;7.112;2023-08-08T05:03:39;18.80;;;8.50;;
313;SDS011;143;51.634;7.112;2023-08-08T05:06:05;20.53;;;9.27;;
313;SDS011;143;51.634;7.112;2023-08-08T05:08:30;33.03;;;9.70;;
313;SDS011;143;51.634;7.112;2023-08-08T05:10:56;26.47;;;9.30;;
313;SDS011;143;51.634;7.112;2023-08-08T05:13:22;19.63;;;10.23;;
313;SDS011;143;51.634;7.112;2023-08-08T05:15:47;15.30;;;8.50;;
313;SDS011;143;51.634;7.112;2023-08-08T05:18:13;13.27;;;8.20;;
313;SDS011;143;51.634;7.112;2023-08-08T05:20:39;23.70;;;9.30;;
313;SDS011;143;51.634;7.112;2023-08-08T05:23:05;19.17;;;8.93;;
313;SDS011;143;51.634;7.112;2023-08-08T05:25:30;19.10;;;9.17;;
313;SDS011;143;51.634;7.112;2023-08-08T05:27:56;21.50;;;10.13;;
313;SDS011;143;51.634;7.112;2023-08-08T05:30:24;26.83;;;12.40;;
313;SDS011;143;51.634;7.112;2023-08-08T05:32:53;36.40;;;11.40;;
313;SDS011;143;51.634;7.112;2023-08-08T05:35:21;27.07;;;14.23;;
313;SDS011;143;51.634;7.112;2023-08-08T05:37:49;25.43;;;14.10;;
313;SDS011;143;51.634;7.112;2023-08-08T05:40:16;31.27;;;14.30;;
313;SDS011;143;51.634;7.112;2023-08-08T05:42:42;27.43;;;13.50;;
313;SDS011;143;51.634;7.112;2023-08-08T05:45:08;22.90;;;16.07;;
313;SDS011;143;51.634;7.112;2023-08-08T05:47:34;29.63;;;14.07;;
313;SDS011;143;51.634;7.112;2023-08-08T05:50:00;28.50;;;15.00;;
313;SDS011;143;51.634;7.112;2023-08-08T05:52:25;25.13;;;15.53;;
313;SDS011;143;51.634;7.112;2023-08-08T05:54:51;27.03;;;16.37;;
313;SDS011;143;51.634;7.112;2023-08-08T05:57:17;34.47;;;18.40;;
313;SDS011;143;51.634;7.112;2023-08-08T05:59:43;27.07;;;16.40;;
313;SDS011;143;51.634;7.112;2023-08-08T06:02:10;32.97;;;16.10;;
313;SDS011;143;51.634;7.112;2023-08-08T06:04:36;28.70;;;16.73;;
313;SDS011;143;51.634;7.112;2023-08-08T06:07:02;34.57;;;17.47;;
313;SDS011;143;51.634;7.112;2023-08-08T06:09:28;27.83;;;17.73;;
313;SDS011;143;51.634;7.112;2023-08-08T06:11:56;26.23;;;18.20;;
313;SDS011;143;51.634;7.112;2023-08-08T06:14:22;31.80;;;17.97;;
313;SDS011;143;51.634;7.112;2023-08-08T06:16:48;30.37;;;18.00;;
313;SDS011;143;51.634;7.112;2023-08-08T06:19:16;43.20;;;19.13;;
313;SDS011;143;51.634;7.112;2023-08-08T06:21:42;34.00;;;19.50;;
313;SDS011;143;51.634;7.112;2023-08-08T06:24:08;40.10;;;19.60;;
313;SDS011;143;51.634;7.112;2023-08-08T06:26:33;34.33;;;19.80;;
313;SDS011;143;51.634;7.112;2023-08-08T06:28:59;31.33;;;18.50;;
313;SDS011;143;51.634;7.112;2023-08-08T06:31:25;45.30;;;21.27;;
313;SDS011;143;51.634;7.112;2023-08-08T06:33:51;35.30;;;18.63;;
313;SDS011;143;51.634;7.112;2023-08-08T06:36:16;40.83;;;19.80;;
313;SDS011;143;51.634;7.112;2023-08-08T06:38:42;39.80;;;20.67;;
313;SDS011;143;51.634;7.112;2023-08-08T06:41:08;28.83;;;18.80;;
313;SDS011;143;51.634;7.112;2023-08-08T06:43:33;41.23;;;19.63;;
313;SDS011;143;51.634;7.112;2023-08-08T06:45:59;38.10;;;18.93;;
313;SDS011;143;51.634;7.112;2023-08-08T06:48:26;31.27;;;16.73;;
313;SDS011;143;51.634;7.112;2023-08-08T06:50:52;28.93;;;17.73;;
313;SDS011;143;51.634;7.112;2023-08-08T06:53:18;35.80;;;18.67;;
313;SDS011;143;51.634;7.112;2023-08-08T06:55:43;36.73;;;17.20;;
313;SDS011;143;51.634;7.112;2023-08-08T06:58:09;33.60;;;16.93;;
313;SDS011;143;51.634;7.112;2023-08-08T07:00:35;28.27;;;17.53;;
313;SDS011;143;51.634;7.112;2023-08-08T07:03:02;31.90;;;17.40;;
313;SDS011;143;51.634;7.112;2023-08-08T07:05:32;35.53;;;17.70;;
313;SDS011;143;51.634;7.112;2023-08-08T07:07:58;32.77;;;19.70;;
313;SDS011;143;51.634;7.112;2023-08-08T07:10:24;34.67;;;17.67;;
313;SDS011;143;51.634;7.112;2023-08-08T07:12:50;41.40;;;18.30;;
313;SDS011;143;51.634;7.112;2023-08-08T07:15:15;42.23;;;17.90;;
313;SDS011;143;51.634;7.112;2023-08-08T07:17:43;37.23;;;19.93;;
313;SDS011;143;51.634;7.112;2023-08-08T07:20:10;32.80;;;19.70;;
313;SDS011;143;51.634;7.112;2023-08-08T07:22:38;32.83;;;19.90;;
313;SDS011;143;51.634;7.112;2023-08-08T07:25:04;41.83;;;21.50;;
313;SDS011;143;51.634;7.112;2023-08-08T07:27:31;42.83;;;21.13;;
313;SDS011;143;51.634;7.112;2023-08-08T07:29:56;32.20;;;19.60;;
313;SDS011;143;51.634;7.112;2023-08-08T07:32:22;33.17;;;19.90;;
313;SDS011;143;51.634;7.112;2023-08-08T07:34:48;32.37;;;18.77;;
313;SDS011;143;51.634;7.112;2023-08-08T07:37:14;26.93;;;17.00;;
313;SDS011;143;51.634;7.112;2023-08-08T07:39:39;34.17;;;17.87;;
313;SDS011;143;51.634;7.112;2023-08-08T07:42:05;48.93;;;18.00;;
313;SDS011;143;51.634;7.112;2023-08-08T07:44:31;29.87;;;17.77;;
313;SDS011;143;51.634;7.112;2023-08-08T07:46:59;27.47;;;17.83;;
313;SDS011;143;51.634;7.112;2023-08-08T07:49:25;33.47;;;16.80;;
313;SDS011;143;51.634;7.112;2023-08-08T07:51:51;21.73;;;12.47;;
313;SDS011;143;51.634;7.112;2023-08-08T07:54:16;26.93;;;13.80;;
313;SDS011;143;51.634;7.112;2023-08-08T07:56:42;24.33;;;12.20;;
313;SDS011;143;51.634;7.112;2023-08-08T07:59:08;20.60;;;10.47;;
313;SDS011;143;51.634;7.112;2023-08-08T08:01:35;15.67;;;9.17;;
313;SDS011;143;51.634;7.112;2023-08-08T08:04:00;15.10;;;7.23;;
313;SDS011;143;51.634;7.112;2023-08-08T08:06:27;18.50;;;6.70;;
313;SDS011;143;51.634;7.112;2023-08-08T08:08:53;12.77;;;6.23;;
313;SDS011;143;51.634;7.112;2023-08-08T08:11:19;17.40;;;5.63;;
313;SDS011;143;51.634;7.112;2023-08-08T08:13:44;12.40;;;5.97;;
313;SDS011;143;51.634;7.112;2023-08-08T08:16:10;22.00;;;6.30;;
313;SDS011;143;51.634;7.112;2023-08-08T08:18:36;13.47;;;5.07;;
313;SDS011;143;51.634;7.112;2023-08-08T08:21:01;9.13;;;5.47;;
313;SDS011;143;51.634;7.112;2023-08-08T08:23:27;15.00;;;6.00;;
313;SDS011;143;51.634;7.112;2023-08-08T08:25:53;12.07;;;5.87;;
313;SDS011;143;51.634;7.112;2023-08-08T08:28:18;12.53;;;4.47;;
313;SDS011;143;51.634;7.112;2023-08-08T08:30:44;7.73;;;4.50;;
313;SDS011;143;51.634;7.112;2023-08-08T08:33:10;6.83;;;4.20;;
313;SDS011;143;51.634;7.112;2023-08-08T08:35:35;25.00;;;5.80;;
313;SDS011;143;51.634;7.112;2023-08-08T08:38:02;13.10;;;4.87;;
313;SDS011;143;51.634;7.112;2023-08-08T08:40:28;11.70;;;3.73;;
313;SDS011;143;51.634;7.112;2023-08-08T08:42:59;8.77;;;3.90;;
313;SDS011;143;51.634;7.112;2023-08-08T08:45:25;9.57;;;4.40;;
313;SDS011;143;51.634;7.112;2023-08-08T08:47:52;11.07;;;3.67;;
313;SDS011;143;51.634;7.112;2023-08-08T08:50:22;17.53;;;4.00;;
313;SDS011;143;51.634;7.112;2023-08-08T08:52:51;9.73;;;3.07;;
313;SDS011;143;51.634;7.112;2023-08-08T08:55:21;20.83;;;3.43;;
313;SDS011;143;51.634;7.112;2023-08-08T08:57:47;6.30;;;2.60;;
313;SDS011;143;51.634;7.112;2023-08-08T09:00:14;11.70;;;2.90;;
313;SDS011;143;51.634;7.112;2023-08-08T09:02:41;8.80;;;2.57;;
313;SDS011;143;51.634;7.112;2023-08-08T09:05:06;5.57;;;2.80;;
313;SDS011;143;51.634;7.112;2023-08-08T09:07:33;6.17;;;2.63;;
313;SDS011;143;51.634;7.112;2023-08-08T09:10:01;5.00;;;2.57;;
313;SDS011;143;51.634;7.112;2023-08-08T09:12:28;7.47;;;2.30;;
313;SDS011;143;51.634;7.112;2023-08-08T09:14:56;7.20;;;2.27;;
313;SDS011;143;51.634;7.112;2023-08-08T09:17:25;5.00;;;2.40;;
313;SDS011;143;51.634;7.112;2023-08-08T09:19:53;8.33;;;2.47;;
313;SDS011;143;51.634;7.112;2023-08-08T09:22:25;8.67;;;2.50;;
313;SDS011;143;51.634;7.112;2023-08-08T09:24:52;7.03;;;2.50;;
313;SDS011;143;51.634;7.112;2023-08-08T09:27:18;4.73;;;2.03;;
313;SDS011;143;51.634;7.112;2023-08-08T09:29:44;4.40;;;2.23;;
313;SDS011;143;51.634;7.112;2023-08-08T09:32:09;5.50;;;2.00;;
313;SDS011;143;51.634;7.112;2023-08-08T09:34:37;18.27;;;2.50;;
313;SDS011;143;51.634;7.112;2023-08-08T09:37:07;5.93;;;2.20;;
313;SDS011;143;51.634;7.112;2023-08-08T09:39:33;4.37;;;2.10;;
313;SDS011;143;51.634;7.112;2023-08-08T09:42:02;5.70;;;2.63;;
313;SDS011;143;51.634;7.112;2023-08-08T09:44:32;13.43;;;2.27;;
313;SDS011;143;51.634;7.112;2023-08-08T09:47:00;6.73;;;2.70;;
313;SDS011;143;51.634;7.112;2023-08-08T09:49:26;6.30;;;2.40;;
313;SDS011;143;51.634;7.112;2023-08-08T09:51:53;12.03;;;2.37;;
313;SDS011;143;51.634;7.112;2023-08-08T09:54:19;6.23;;;2.40;;
313;SDS011;143;51.634;7.112;2023-08-08T09:56:46;7.03;;;2.30;;
313;SDS011;143;51.634;7.112;2023-08-08T09:59:13;10.10;;;3.50;;
313;SDS011;143;51.634;7.112;2023-08-08T10:01:43;9.10;;;2.50;;
313;SDS011;143;51.634;7.112;2023-08-08T10:04:09;10.97;;;2.80;;
313;SDS011;143;51.634;7.112;2023-08-08T10:06:36;4.53;;;2.40;;
313;SDS011;143;51.634;7.112;2023-08-08T10:09:03;5.63;;;2.40;;
313;SDS011;143;51.634;7.112;2023-08-08T10:11:29;15.00;;;3.13;;
313;SDS011;143;51.634;7.112;2023-08-08T10:13:57;7.33;;;2.70;;
313;SDS011;143;51.634;7.112;2023-08-08T10:16:26;7.43;;;2.17;;
313;SDS011;143;51.634;7.112;2023-08-08T10:18:58;5.20;;;2.73;;
313;SDS011;143;51.634;7.112;2023-08-08T10:21:26;8.47;;;2.67;;
313;SDS011;143;51.634;7.112;2023-08-08T10:24:03;12.73;;;3.00;;
313;SDS011;143;51.634;7.112;2023-08-08T10:26:31;7.60;;;3.00;;
313;SDS011;143;51.634;7.112;2023-08-08T10:28:58;8.80;;;2.67;;
313;SDS011;143;51.634;7.112;2023-08-08T10:31:26;9.83;;;2.47;;
313;SDS011;143;51.634;7.112;2023-08-08T10:34:04;10.00;;;2.53;;
313;SDS011;143;51.634;7.112;2023-08-08T10:36:50;8.93;;;3.33;;
313;SDS011;143;51.634;7.112;2023-08-08T10:39:20;10.10;;;3.47;;
313;SDS011;143;51.634;7.112;2023-08-08T10:41:50;6.20;;;2.73;;
313;SDS011;143;51.634;7.112;2023-08-08T10:44:22;8.33;;;2.63;;
313;SDS011;143;51.634;7.112;2023-08-08T10:46:49;9.10;;;2.50;;
313;SDS011;143;51.634;7.112;2023-08-08T10:49:17;5.90;;;2.37;;
313;SDS011;143;51.634;7.112;2023-08-08T10:51:44;4.77;;;2.03;;
313;SDS011;143;51.634;7.112;2023-08-08T10:56:39;4.87;;;2.10;;
313;SDS011;143;51.634;7.112;2023-08-08T10:59:19;7.33;;;2.27;;
313;SDS011;143;51.634;7.112;2023-08-08T11:01:46;5.50;;;2.27;;
313;SDS011;143;51.634;7.112;2023-08-08T11:04:14;5.80;;;2.37;;
313;SDS011;143;51.634;7.112;2023-08-08T11:06:41;4.93;;;2.07;;
313;SDS011;143;51.634;7.112;2023-08-08T11:09:07;8.63;;;2.50;;
313;SDS011;143;51.634;7.112;2023-08-08T11:11:37;4.80;;;2.17;;
313;SDS011;143;51.634;7.112;2023-08-08T11:14:09;9.10;;;2.10;;
313;SDS011;143;51.634;7.112;2023-08-08T11:16:39;4.70;;;2.27;;
313;SDS011;143;51.634;7.112;2023-08-08T11:19:06;8.93;;;2.47;;
313;SDS011;143;51.634;7.112;2023-08-08T11:21:33;6.67;;;2.77;;
313;SDS011;143;51.634;7.112;2023-08-08T11:24:01;5.23;;;2.37;;
313;SDS011;143;51.634;7.112;2023-08-08T11:26:27;7.80;;;2.60;;
313;SDS011;143;51.634;7.112;2023-08-08T11:28:56;3.77;;;2.60;;
313;SDS011;143;51.634;7.112;2023-08-08T11:31:23;4.53;;;2.40;;
313;SDS011;143;51.634;7.112;2023-08-08T11:33:50;7.30;;;2.50;;
313;SDS011;143;51.634;7.112;2023-08-08T11:36:17;5.67;;;2.83;;
313;SDS011;143;51.634;7.112;2023-08-08T11:38:44;8.77;;;2.93;;
313;SDS011;143;51.634;7.112;2023-08-08T11:41:10;4.07;;;2.00;;
313;SDS011;143;51.634;7.112;2023-08-08T11:43:40;8.30;;;2.67;;
313;SDS011;143;51.634;7.112;2023-08-08T11:46:12;5.10;;;2.07;;
313;SDS011;143;51.634;7.112;2023-08-08T11:48:40;10.60;;;2.67;;
313;SDS011;143;51.634;7.112;2023-08-08T11:51:07;3.90;;;1.90;;
313;SDS011;143;51.634;7.112;2023-08-08T11:53:34;2.97;;;2.00;;
313;SDS011;143;51.634;7.112;2023-08-08T11:56:01;3.50;;;1.90;;
313;SDS011;143;51.634;7.112;2023-08-08T11:58:28;4.60;;;2.10;;
313;SDS011;143;51.634;7.112;2023-08-08T12:00:56;5.30;;;2.47;;
313;SDS011;143;51.634;7.112;2023-08-08T12:03:22;5.83;;;2.10;;
313;SDS011;143;51.634;7.112;2023-08-08T12:05:50;5.93;;;2.33;;
313;SDS011;143;51.634;7.112;2023-08-08T12:08:19;4.67;;;2.53;;
313;SDS011;143;51.634;7.112;2023-08-08T12:10:48;7.43;;;2.30;;
313;SDS011;143;51.634;7.112;2023-08-08T12:13:19;7.03;;;2.27;;
313;SDS011;143;51.634;7.112;2023-08-08T12:15:52;3.83;;;1.80;;
313;SDS011;143;51.634;7.112;2023-08-08T12:18:18;3.17;;;1.97;;
313;SDS011;143;51.634;7.112;2023-08-08T12:20:44;7.53;;;3.90;;
313;SDS011;143;51.634;7.112;2023-08-08T12:23:11;3.03;;;1.80;;
313;SDS011;143;51.634;7.112;2023-08-08T12:25:37;8.53;;;1.70;;
313;SDS011;143;51.634;7.112;2023-08-08T12:28:04;6.17;;;1.53;;
313;SDS011;143;51.634;7.112;2023-08-08T12:30:31;7.23;;;2.20;;
313;SDS011;143;51.634;7.112;2023-08-08T12:32:57;4.53;;;1.93;;
313;SDS011;143;51.634;7.112;2023-08-08T12:35:23;4.37;;;1.70;;
313;SDS011;143;51.634;7.112;2023-08-08T12:37:51;3.90;;;1.90;;
313;SDS011;143;51.634;7.112;2023-08-08T12:40:17;6.93;;;2.10;;
313;SDS011;143;51.634;7.112;2023-08-08T12:42:43;9.20;;;2.20;;
313;SDS011;143;51.634;7.112;2023-08-08T12:45:09;3.80;;;1.80;;
313;SDS011;143;51.634;7.112;2023-08-08T12:47:35;5.40;;;1.70;;
313;SDS011;143;51.634;7.112;2023-08-08T12:50:03;3.90;;;2.10;;
313;SDS011;143;51.634;7.112;2023-08-08T12:52:29;5.67;;;2.30;;
313;SDS011;143;51.634;7.112;2023-08-08T12:54:55;5.23;;;2.00;;
313;SDS011;143;51.634;7.112;2023-08-08T12:57:22;5.40;;;2.23;;
313;SDS011;143;51.634;7.112;2023-08-08T12:59:47;6.77;;;2.13;;
313;SDS011;143;51.634;7.112;2023-08-08T13:02:13;4.67;;;1.57;;
313;SDS011;143;51.634;7.112;2023-08-08T13:04:39;1.57;;;1.40;;
313;SDS011;143;51.634;7.112;2023-08-08T13:07:04;4.27;;;1.53;;
313;SDS011;143;51.634;7.112;2023-08-08T13:09:30;5.37;;;1.47;;
313;SDS011;143;51.634;7.112;2023-08-08T13:11:56;6.50;;;1.83;;
313;SDS011;143;51.634;7.112;2023-08-08T13:14:21;4.23;;;2.33;;
313;SDS011;143;51.634;7.112;2023-08-08T13:16:47;4.40;;;1.77;;
313;SDS011;143;51.634;7.112;2023-08-08T13:19:13;1.73;;;1.37;;
313;SDS011;143;51.634;7.112;2023-08-08T13:21:40;5.10;;;1.83;;
313;SDS011;143;51.634;7.112;2023-08-08T13:24:06;5.53;;;1.50;;
313;SDS011;143;51.634;7.112;2023-08-08T13:26:33;7.87;;;1.87;;
313;SDS011;143;51.634;7.112;2023-08-08T13:28:59;4.57;;;1.70;;
313;SDS011;143;51.634;7.112;2023-08-08T13:31:25;4.00;;;1.80;;
313;SDS011;143;51.634;7.112;2023-08-08T13:33:50;5.47;;;1.97;;
313;SDS011;143;51.634;7.112;2023-08-08T13:36:16;8.50;;;1.70;;
313;SDS011;143;51.634;7.112;2023-08-08T13:38:41;5.53;;;1.67;;
313;SDS011;143;51.634;7.112;2023-08-08T13:41:07;7.17;;;1.90;;
313;SDS011;143;51.634;7.112;2023-08-08T13:43:33;4.13;;;1.90;;
313;SDS011;143;51.634;7.112;2023-08-08T13:45:59;3.57;;;2.40;;
313;SDS011;143;51.634;7.112;2023-08-08T13:48:25;2.43;;;1.70;;
313;SDS011;143;51.634;7.112;2023-08-08T13:50:52;6.37;;;2.07;;
313;SDS011;143;51.634;7.112;2023-08-08T13:53:18;2.83;;;1.80;;
313;SDS011;143;51.634;7.112;2023-08-08T13:55:43;4.10;;;2.10;;
313;SDS011;143;51.634;7.112;2023-08-08T13:58:09;3.70;;;1.70;;
313;SDS011;143;51.634;7.112;2023-08-08T14:00:35;12.90;;;2.60;;
313;SDS011;143;51.634;7.112;2023-08-08T14:03:02;5.40;;;2.07;;
313;SDS011;143;51.634;7.112;2023-08-08T14:05:28;3.00;;;1.77;;
313;SDS011;143;51.634;7.112;2023-08-08T14:07:54;5.23;;;2.13;;
313;SDS011;143;51.634;7.112;2023-08-08T14:10:19;8.93;;;2.33;;
313;SDS011;143;51.634;7.112;2023-08-08T14:12:45;3.30;;;1.80;;
313;SDS011;143;51.634;7.112;2023-08-08T14:15:11;3.00;;;2.37;;
313;SDS011;143;51.634;7.112;2023-08-08T14:17:36;4.90;;;2.23;;
313;SDS011;143;51.634;7.112;2023-08-08T14:20:02;5.87;;;2.40;;
313;SDS011;143;51.634;7.112;2023-08-08T14:22:29;5.10;;;1.97;;
313;SDS011;143;51.634;7.112;2023-08-08T14:24:55;4.27;;;2.00;;
313;SDS011;143;51.634;7.112;2023-08-08T14:27:21;6.00;;;2.30;;
313;SDS011;143;51.634;7.112;2023-08-08T14:29:47;10.17;;;2.10;;
313;SDS011;143;51.634;7.112;2023-08-08T14:32:13;4.90;;;2.20;;
313;SDS011;143;51.634;7.112;2023-08-08T14:34:39;4.53;;;1.70;;
313;SDS011;143;51.634;7.112;2023-08-08T14:37:05;3.77;;;1.67;;
313;SDS011;143;51.634;7.112;2023-08-08T14:39:31;5.23;;;2.07;;
313;SDS011;143;51.634;7.112;2023-08-08T14:41:57;5.20;;;1.87;;
313;SDS011;143;51.634;7.112;2023-08-08T14:44:23;4.57;;;1.70;;
313;SDS011;143;51.634;7.112;2023-08-08T14:46:49;3.23;;;1.50;;
313;SDS011;143;51.634;7.112;2023-08-08T14:49:15;4.70;;;2.10;;
313;SDS011;143;51.634;7.112;2023-08-08T14:51:41;5.27;;;1.80;;
313;SDS011;143;51.634;7.112;2023-08-08T14:54:06;13.67;;;1.80;;
313;SDS011;143;51.634;7.112;2023-08-08T14:56:32;4.03;;;1.70;;
313;SDS011;143;51.634;7.112;2023-08-08T14:58:58;4.27;;;1.50;;
313;SDS011;143;51.634;7.112;2023-08-08T15:01:23;2.13;;;1.27;;
313;SDS011;143;51.634;7.112;2023-08-08T15:03:50;3.50;;;1.80;;
313;SDS011;143;51.634;7.112;2023-08-08T15:06:16;8.03;;;1.47;;
313;SDS011;143;51.634;7.112;2023-08-08T15:08:41;3.80;;;1.30;;
313;SDS011;143;51.634;7.112;2023-08-08T15:11:07;4.57;;;1.40;;
313;SDS011;143;51.634;7.112;2023-08-08T15:13:33;2.47;;;1.20;;
313;SDS011;143;51.634;7.112;2023-08-08T15:15:59;3.37;;;1.50;;
313;SDS011;143;51.634;7.112;2023-08-08T15:18:25;2.90;;;1.50;;
313;SDS011;143;51.634;7.112;2023-08-08T15:20:51;3.20;;;1.43;;
313;SDS011;143;51.634;7.112;2023-08-08T15:23:17;2.30;;;1.50;;
313;SDS011;143;51.634;7.112;2023-08-08T15:25:42;3.33;;;1.30;;
313;SDS011;143;51.634;7.112;2023-08-08T15:28:08;3.13;;;1.30;;
313;SDS011;143;51.634;7.112;2023-08-08T15:30:34;3.03;;;1.20;;
313;SDS011;143;51.634;7.112;2023-08-08T15:33:00;3.90;;;1.27;;
313;SDS011;143;51.634;7.112;2023-08-08T15:35:26;2.50;;;1.10;;
313;SDS011;143;51.634;7.112;2023-08-08T15:37:51;4.00;;;0.97;;